sensor_id;sensor_type;location;lat;lon;timestamp;pressure;altitude;pressure_sealevel;temperature;humidity
75936;BME280;64614;32.062;34.834;2023-09-19T00:00:38;100444.47;;;29.54;58.44
75936;BME280;64614;32.062;34.834;2023-09-19T00:03:06;100446.06;;;29.55;58.48
75936;BME280;64614;32.062;34.834;2023-09-19T00:05:35;100448.84;;;29.55;58.20
75936;BME280;64614;32.062;34.834;2023-09-19T00:08:02;100441.31;;;29.55;58.34
75936;BME280;64614;32.062;34.834;2023-09-19T00:10:32;100443.31;;;29.55;58.38
75936;BME280;64614;32.062;34.834;2023-09-19T00:13:01;100436.59;;;29.56;58.32
75936;BME280;64614;32.062;34.834;2023-09-19T00:15:29;100433.03;;;29.55;58.41
75936;BME280;64614;32.062;34.834;2023-09-19T00:17:55;100437.78;;;29.55;58.12
75936;BME280;64614;32.062;34.834;2023-09-19T00:20:22;100436.94;;;29.54;58.09
75936;BME280;64614;32.062;34.834;2023-09-19T00:22:51;100436.16;;;29.54;58.21
75936;BME280;64614;32.062;34.834;2023-09-19T00:25:20;100431.78;;;29.53;58.20
75936;BME280;64614;32.062;34.834;2023-09-19T00:27:46;100438.94;;;29.54;58.27
75936;BME280;64614;32.062;34.834;2023-09-19T00:30:17;100436.59;;;29.56;58.05
75936;BME280;64614;32.062;34.834;2023-09-19T00:32:50;100426.25;;;29.53;58.28
75936;BME280;64614;32.062;34.834;2023-09-19T00:35:20;100426.69;;;29.55;58.00
75936;BME280;64614;32.062;34.834;2023-09-19T00:37:47;100419.19;;;29.55;58.17
75936;BME280;64614;32.062;34.834;2023-09-19T00:40:12;100420.34;;;29.54;58.05
75936;BME280;64614;32.062;34.834;2023-09-19T00:42:45;100426.69;;;29.55;58.04
75936;BME280;64614;32.062;34.834;2023-09-19T00:45:13;100438.56;;;29.55;58.05
75936;BME280;64614;32.062;34.834;2023-09-19T00:47:59;100432.25;;;29.55;58.12
75936;BME280;64614;32.062;34.834;2023-09-19T00:50:29;100433.41;;;29.54;57.89
75936;BME280;64614;32.062;34.834;2023-09-19T00:52:58;100432.97;;;29.52;58.00
75936;BME280;64614;32.062;34.834;2023-09-19T00:55:25;100441.69;;;29.54;58.02
75936;BME280;64614;32.062;34.834;2023-09-19T00:57:51;100437.78;;;29.55;57.76
75936;BME280;64614;32.062;34.834;2023-09-19T01:00:18;100429.81;;;29.53;57.87
75936;BME280;64614;32.062;34.834;2023-09-19T01:02:45;100437.31;;;29.53;57.88
75936;BME280;64614;32.062;34.834;2023-09-19T01:05:12;100440.09;;;29.53;57.81
75936;BME280;64614;32.062;34.834;2023-09-19T01:07:38;100435.28;;;29.50;57.79
75936;BME280;64614;32.062;34.834;2023-09-19T01:10:11;100438.03;;;29.50;58.10
75936;BME280;64614;32.062;34.834;2023-09-19T01:18:21;100452.31;;;29.52;58.03
75936;BME280;64614;32.062;34.834;2023-09-19T01:21:08;100455.47;;;29.50;58.04
75936;BME280;64614;32.062;34.834;2023-09-19T01:30:17;100446.72;;;29.48;58.19
75936;BME280;64614;32.062;34.834;2023-09-19T01:32:43;100439.88;;;29.42;57.92
75936;BME280;64614;32.062;34.834;2023-09-19T01:35:11;100443.88;;;29.45;58.10
75936;BME280;64614;32.062;34.834;2023-09-19T01:37:38;100444.34;;;29.47;57.95
75936;BME280;64614;32.062;34.834;2023-09-19T01:40:10;100439.06;;;29.42;57.99
75936;BME280;64614;32.062;34.834;2023-09-19T01:47:54;100448.19;;;29.42;57.92
75936;BME280;64614;32.062;34.834;2023-09-19T01:50:41;100448.25;;;29.46;58.09
75936;BME280;64614;32.062;34.834;2023-09-19T01:53:28;100452.91;;;29.42;57.66
75936;BME280;64614;32.062;34.834;2023-09-19T01:55:56;100449.78;;;29.43;57.92
75936;BME280;64614;32.062;34.834;2023-09-19T02:01:01;100455.41;;;29.47;58.33
75936;BME280;64614;32.062;34.834;2023-09-19T02:03:27;100457.78;;;29.48;58.26
75936;BME280;64614;32.062;34.834;2023-09-19T02:05:54;100461.72;;;29.47;58.18
75936;BME280;64614;32.062;34.834;2023-09-19T02:08:21;100462.59;;;29.51;58.59
75936;BME280;64614;32.062;34.834;2023-09-19T02:10:51;100469.75;;;29.52;57.99
75936;BME280;64614;32.062;34.834;2023-09-19T02:13:21;100453.94;;;29.53;57.76
75936;BME280;64614;32.062;34.834;2023-09-19T02:15:49;100453.94;;;29.53;58.16
75936;BME280;64614;32.062;34.834;2023-09-19T02:18:15;100452.31;;;29.52;58.26
75936;BME280;64614;32.062;34.834;2023-09-19T02:20:41;100454.72;;;29.53;57.92
75936;BME280;64614;32.062;34.834;2023-09-19T02:23:07;100463.47;;;29.55;57.84
75936;BME280;64614;32.062;34.834;2023-09-19T02:25:34;100456.31;;;29.54;57.85
75936;BME280;64614;32.062;34.834;2023-09-19T02:28:00;100453.56;;;29.54;57.72
75936;BME280;64614;32.062;34.834;2023-09-19T02:30:29;100450.00;;;29.54;57.85
75936;BME280;64614;32.062;34.834;2023-09-19T02:32:55;100458.31;;;29.54;57.91
75936;BME280;64614;32.062;34.834;2023-09-19T02:35:21;100446.84;;;29.55;57.88
75936;BME280;64614;32.062;34.834;2023-09-19T02:37:48;100456.31;;;29.54;57.76
75936;BME280;64614;32.062;34.834;2023-09-19T02:40:14;100459.91;;;29.55;57.71
75936;BME280;64614;32.062;34.834;2023-09-19T02:42:55;100463.84;;;29.54;57.90
75936;BME280;64614;32.062;34.834;2023-09-19T02:45:21;100453.94;;;29.53;57.75
75936;BME280;64614;32.062;34.834;2023-09-19T02:47:48;100457.13;;;29.55;57.38
75936;BME280;64614;32.062;34.834;2023-09-19T02:50:15;100453.94;;;29.53;57.66
75936;BME280;64614;32.062;34.834;2023-09-19T02:52:44;100457.84;;;29.52;57.71
75936;BME280;64614;32.062;34.834;2023-09-19T02:55:11;100470.53;;;29.53;57.86
75936;BME280;64614;32.062;34.834;2023-09-19T02:57:39;100461.44;;;29.52;57.57
75936;BME280;64614;32.062;34.834;2023-09-19T03:00:09;100467.31;;;29.51;57.72
75936;BME280;64614;32.062;34.834;2023-09-19T03:02:37;100467.69;;;29.49;57.89
75936;BME280;64614;32.062;34.834;2023-09-19T03:05:05;100463.69;;;29.47;57.85
75936;BME280;64614;32.062;34.834;2023-09-19T03:07:32;100463.97;;;29.42;58.01
75936;BME280;64614;32.062;34.834;2023-09-19T03:09:58;100473.44;;;29.41;58.47
75936;BME280;64614;32.062;34.834;2023-09-19T03:12:23;100467.03;;;29.36;58.43
75936;BME280;64614;32.062;34.834;2023-09-19T03:14:49;100460.50;;;29.29;57.99
75936;BME280;64614;32.062;34.834;2023-09-19T03:17:16;100469.56;;;29.26;57.53
75936;BME280;64614;32.062;34.834;2023-09-19T03:19:42;100470.19;;;29.19;56.93
75936;BME280;64614;32.062;34.834;2023-09-19T03:22:08;100461.31;;;29.10;56.93
75936;BME280;64614;32.062;34.834;2023-09-19T03:24:33;100463.56;;;29.04;56.48
75936;BME280;64614;32.062;34.834;2023-09-19T03:27:01;100472.06;;;28.95;56.07
75936;BME280;64614;32.062;34.834;2023-09-19T03:29:28;100482.66;;;28.93;56.40
75936;BME280;64614;32.062;34.834;2023-09-19T03:31:53;100477.84;;;28.90;56.24
75936;BME280;64614;32.062;34.834;2023-09-19T03:34:20;100480.47;;;28.83;55.43
75936;BME280;64614;32.062;34.834;2023-09-19T03:36:46;100475.22;;;28.77;55.38
75936;BME280;64614;32.062;34.834;2023-09-19T03:39:12;100482.88;;;28.68;55.25
75936;BME280;64614;32.062;34.834;2023-09-19T03:41:37;100486.34;;;28.65;54.78
75936;BME280;64614;32.062;34.834;2023-09-19T03:44:04;100487.78;;;28.59;54.77
75936;BME280;64614;32.062;34.834;2023-09-19T03:46:30;100496.31;;;28.54;54.64
75936;BME280;64614;32.062;34.834;2023-09-19T03:48:55;100497.03;;;28.51;55.00
75936;BME280;64614;32.062;34.834;2023-09-19T03:51:21;100489.56;;;28.51;54.85
75936;BME280;64614;32.062;34.834;2023-09-19T03:53:47;100491.84;;;28.49;55.24
75936;BME280;64614;32.062;34.834;2023-09-19T03:56:14;100494.53;;;28.45;55.32
75936;BME280;64614;32.062;34.834;2023-09-19T03:58:40;100502.28;;;28.40;54.54
75936;BME280;64614;32.062;34.834;2023-09-19T04:01:06;100500.59;;;28.35;54.71
75936;BME280;64614;32.062;34.834;2023-09-19T04:03:34;100505.41;;;28.38;54.74
75936;BME280;64614;32.062;34.834;2023-09-19T04:06:14;100503.16;;;28.28;54.55
75936;BME280;64614;32.062;34.834;2023-09-19T04:08:40;100506.22;;;28.23;54.48
75936;BME280;64614;32.062;34.834;2023-09-19T04:11:06;100506.91;;;28.20;54.60
75936;BME280;64614;32.062;34.834;2023-09-19T04:13:32;100516.34;;;28.19;54.69
75936;BME280;64614;32.062;34.834;2023-09-19T04:15:57;100527.28;;;28.15;54.35
75936;BME280;64614;32.062;34.834;2023-09-19T04:18:23;100517.75;;;28.12;54.31
75936;BME280;64614;32.062;34.834;2023-09-19T04:20:52;100532.28;;;28.09;54.48
75936;BME280;64614;32.062;34.834;2023-09-19T04:23:17;100525.00;;;28.05;54.78
75936;BME280;64614;32.062;34.834;2023-09-19T04:25:46;100525.38;;;28.03;54.75
75936;BME280;64614;32.062;34.834;2023-09-19T04:28:12;100528.50;;;28.02;54.52
75936;BME280;64614;32.062;34.834;2023-09-19T04:30:38;100522.16;;;28.01;54.66
75936;BME280;64614;32.062;34.834;2023-09-19T04:33:07;100525.75;;;28.02;54.47
75936;BME280;64614;32.062;34.834;2023-09-19T04:35:33;100528.81;;;28.00;54.65
75936;BME280;64614;32.062;34.834;2023-09-19T04:37:59;100526.97;;;28.04;54.64
75936;BME280;64614;32.062;34.834;2023-09-19T04:40:25;100518.66;;;28.17;54.86
75936;BME280;64614;32.062;34.834;2023-09-19T04:42:58;100526.88;;;28.29;54.80
75936;BME280;64614;32.062;34.834;2023-09-19T04:45:27;100521.28;;;28.41;54.23
75936;BME280;64614;32.062;34.834;2023-09-19T04:47:54;100523.16;;;28.53;54.46
75936;BME280;64614;32.062;34.834;2023-09-19T04:50:20;100522.25;;;28.65;53.98
75936;BME280;64614;32.062;34.834;2023-09-19T04:52:50;100527.63;;;28.74;53.89
75936;BME280;64614;32.062;34.834;2023-09-19T04:55:17;100528.22;;;28.83;53.44
75936;BME280;64614;32.062;34.834;2023-09-19T04:57:49;100533.13;;;28.90;53.20
75936;BME280;64614;32.062;34.834;2023-09-19T05:00:19;100528.94;;;28.96;52.82
75936;BME280;64614;32.062;34.834;2023-09-19T05:02:54;100536.69;;;29.06;53.17
75936;BME280;64614;32.062;34.834;2023-09-19T05:05:21;100528.47;;;29.10;52.95
75936;BME280;64614;32.062;34.834;2023-09-19T05:07:48;100532.97;;;29.18;52.61
75936;BME280;64614;32.062;34.834;2023-09-19T05:10:14;100521.66;;;29.23;52.98
75936;BME280;64614;32.062;34.834;2023-09-19T05:12:40;100527.72;;;29.29;52.66
75936;BME280;64614;32.062;34.834;2023-09-19T05:15:07;100533.88;;;29.38;52.51
75936;BME280;64614;32.062;34.834;2023-09-19T05:17:34;100528.03;;;29.44;52.54
75936;BME280;64614;32.062;34.834;2023-09-19T05:20:03;100530.50;;;29.49;52.02
75936;BME280;64614;32.062;34.834;2023-09-19T05:22:57;100519.97;;;29.54;52.26
75936;BME280;64614;32.062;34.834;2023-09-19T05:25:23;100521.56;;;29.55;51.91
75936;BME280;64614;32.062;34.834;2023-09-19T05:27:53;100538.25;;;29.59;52.15
75936;BME280;64614;32.062;34.834;2023-09-19T05:30:18;100541.81;;;29.60;52.17
75936;BME280;64614;32.062;34.834;2023-09-19T05:32:45;100545.81;;;29.62;52.11
75936;BME280;64614;32.062;34.834;2023-09-19T05:35:11;100539.56;;;29.65;52.34
75936;BME280;64614;32.062;34.834;2023-09-19T05:37:38;100540.44;;;29.69;52.63
75936;BME280;64614;32.062;34.834;2023-09-19T05:40:05;100542.09;;;29.74;52.57
75936;BME280;64614;32.062;34.834;2023-09-19T05:42:38;100554.41;;;29.77;52.33
75936;BME280;64614;32.062;34.834;2023-09-19T05:45:05;100546.94;;;29.77;52.30
75936;BME280;64614;32.062;34.834;2023-09-19T05:47:32;100549.38;;;29.82;52.35
75936;BME280;64614;32.062;34.834;2023-09-19T05:49:57;100544.22;;;29.81;52.02
75936;BME280;64614;32.062;34.834;2023-09-19T05:52:24;100550.63;;;29.85;52.09
75936;BME280;64614;32.062;34.834;2023-09-19T05:54:50;100550.94;;;29.99;51.88
75936;BME280;64614;32.062;34.834;2023-09-19T05:57:16;100556.03;;;29.97;51.68
75936;BME280;64614;32.062;34.834;2023-09-19T05:59:42;100560.19;;;30.07;52.40
75936;BME280;64614;32.062;34.834;2023-09-19T06:02:08;100553.97;;;30.14;52.24
75936;BME280;64614;32.062;34.834;2023-09-19T06:04:35;100548.16;;;30.19;52.12
75936;BME280;64614;32.062;34.834;2023-09-19T06:07:01;100559.78;;;30.28;52.30
75936;BME280;64614;32.062;34.834;2023-09-19T06:09:29;100558.44;;;30.42;52.69
75936;BME280;64614;32.062;34.834;2023-09-19T06:11:58;100547.38;;;30.42;52.35
75936;BME280;64614;32.062;34.834;2023-09-19T06:14:25;100557.72;;;30.45;51.98
75936;BME280;64614;32.062;34.834;2023-09-19T06:16:51;100551.41;;;30.48;52.26
75936;BME280;64614;32.062;34.834;2023-09-19T06:19:19;100553.03;;;30.49;52.06
75936;BME280;64614;32.062;34.834;2023-09-19T06:21:48;100561.78;;;30.51;52.19
75936;BME280;64614;32.062;34.834;2023-09-19T06:24:14;100560.69;;;30.56;52.15
75936;BME280;64614;32.062;34.834;2023-09-19T06:26:40;100550.84;;;30.58;52.64
75936;BME280;64614;32.062;34.834;2023-09-19T06:29:06;100562.81;;;30.62;52.88
75936;BME280;64614;32.062;34.834;2023-09-19T06:31:33;100562.03;;;30.66;52.05
75936;BME280;64614;32.062;34.834;2023-09-19T06:33:59;100563.63;;;30.67;52.37
75936;BME280;64614;32.062;34.834;2023-09-19T06:36:27;100562.84;;;30.66;52.39
75936;BME280;64614;32.062;34.834;2023-09-19T06:38:52;100560.13;;;30.70;52.27
75936;BME280;64614;32.062;34.834;2023-09-19T06:41:18;100562.09;;;30.69;52.06
75936;BME280;64614;32.062;34.834;2023-09-19T06:43:44;100564.50;;;30.71;52.30
75936;BME280;64614;32.062;34.834;2023-09-19T06:46:10;100570.47;;;30.73;52.05
75936;BME280;64614;32.062;34.834;2023-09-19T06:48:38;100566.91;;;30.72;51.96
75936;BME280;64614;32.062;34.834;2023-09-19T06:51:03;100571.28;;;30.73;51.91
75936;BME280;64614;32.062;34.834;2023-09-19T06:53:33;100568.50;;;30.73;51.76
75936;BME280;64614;32.062;34.834;2023-09-19T06:56:01;100575.66;;;30.74;52.28
75936;BME280;64614;32.062;34.834;2023-09-19T06:58:27;100570.13;;;30.74;51.93
75936;BME280;64614;32.062;34.834;2023-09-19T07:00:52;100569.69;;;30.72;51.93
75936;BME280;64614;32.062;34.834;2023-09-19T07:03:19;100578.44;;;30.74;52.20
75936;BME280;64614;32.062;34.834;2023-09-19T07:05:48;100579.22;;;30.75;51.81
75936;BME280;64614;32.062;34.834;2023-09-19T07:08:14;100580.38;;;30.74;51.61
75936;BME280;64614;32.062;34.834;2023-09-19T07:10:41;100585.94;;;30.74;52.11
75936;BME280;64614;32.062;34.834;2023-09-19T07:13:14;100579.97;;;30.72;51.88
75936;BME280;64614;32.062;34.834;2023-09-19T07:15:42;100584.31;;;30.73;51.85
75936;BME280;64614;32.062;34.834;2023-09-19T07:18:13;100582.75;;;30.72;51.76
75936;BME280;64614;32.062;34.834;2023-09-19T07:20:40;100576.41;;;30.71;51.56
75936;BME280;64614;32.062;34.834;2023-09-19T07:23:18;100570.78;;;30.68;51.67
75936;BME280;64614;32.062;34.834;2023-09-19T07:25:44;100580.72;;;30.69;51.86
75936;BME280;64614;32.062;34.834;2023-09-19T07:28:10;100577.94;;;30.69;51.93
75936;BME280;64614;32.062;34.834;2023-09-19T07:30:36;100580.72;;;30.69;51.76
75936;BME280;64614;32.062;34.834;2023-09-19T07:33:07;100582.25;;;30.66;51.23
75936;BME280;64614;32.062;34.834;2023-09-19T07:35:33;100583.88;;;30.67;51.44
75936;BME280;64614;32.062;34.834;2023-09-19T07:37:59;100583.44;;;30.65;51.71
75936;BME280;64614;32.062;34.834;2023-09-19T07:40:27;100585.03;;;30.66;51.31
75936;BME280;64614;32.062;34.834;2023-09-19T07:42:57;100579.84;;;30.64;51.32
75936;BME280;64614;32.062;34.834;2023-09-19T07:45:28;100577.06;;;30.64;51.69
75936;BME280;64614;32.062;34.834;2023-09-19T07:47:55;100570.78;;;30.68;51.60
75936;BME280;64614;32.062;34.834;2023-09-19T07:50:20;100565.13;;;30.60;51.49
75936;BME280;64614;32.062;34.834;2023-09-19T07:52:47;100562.34;;;30.60;51.11
75936;BME280;64614;32.062;34.834;2023-09-19T07:55:13;100560.38;;;30.61;51.41
75936;BME280;64614;32.062;34.834;2023-09-19T07:57:42;100546.13;;;30.59;50.91
75936;BME280;64614;32.062;34.834;2023-09-19T08:00:09;100550.84;;;30.58;51.49
75936;BME280;64614;32.062;34.834;2023-09-19T08:02:38;100548.00;;;30.55;50.89
75936;BME280;64614;32.062;34.834;2023-09-19T08:05:04;100543.25;;;30.55;50.97
75936;BME280;64614;32.062;34.834;2023-09-19T08:07:39;100553.16;;;30.56;50.17
75936;BME280;64614;32.062;34.834;2023-09-19T08:10:05;100538.91;;;30.54;50.75
75936;BME280;64614;32.062;34.834;2023-09-19T08:12:44;100549.63;;;30.56;51.31
75936;BME280;64614;32.062;34.834;2023-09-19T08:15:18;100548.38;;;30.53;50.93
75936;BME280;64614;32.062;34.834;2023-09-19T08:17:45;100547.22;;;30.54;50.70
75936;BME280;64614;32.062;34.834;2023-09-19T08:20:11;100536.13;;;30.54;51.02
75936;BME280;64614;32.062;34.834;2023-09-19T08:22:48;100538.91;;;30.54;50.96
75936;BME280;64614;32.062;34.834;2023-09-19T08:25:17;100534.94;;;30.55;50.90
75936;BME280;64614;32.062;34.834;2023-09-19T08:27:46;100533.78;;;30.56;51.19
75936;BME280;64614;32.062;34.834;2023-09-19T08:30:14;100536.19;;;30.58;51.33
75936;BME280;64614;32.062;34.834;2023-09-19T08:32:40;100533.41;;;30.58;51.53
75936;BME280;64614;32.062;34.834;2023-09-19T08:35:08;100539.03;;;30.61;51.14
75936;BME280;64614;32.062;34.834;2023-09-19T08:37:35;100532.72;;;30.64;48.69
75936;BME280;64614;32.062;34.834;2023-09-19T08:40:00;100539.75;;;30.58;48.33
75936;BME280;64614;32.062;34.834;2023-09-19T08:42:27;100533.38;;;30.54;48.53
75936;BME280;64614;32.062;34.834;2023-09-19T08:44:53;100526.91;;;30.50;49.30
75936;BME280;64614;32.062;34.834;2023-09-19T08:47:40;100530.16;;;30.52;50.52
75936;BME280;64614;32.062;34.834;2023-09-19T08:52:42;100520.69;;;30.53;50.56
75936;BME280;64614;32.062;34.834;2023-09-19T08:55:11;100520.69;;;30.53;50.40
75936;BME280;64614;32.062;34.834;2023-09-19T08:57:38;100519.91;;;30.56;50.60
75936;BME280;64614;32.062;34.834;2023-09-19T09:00:07;100516.78;;;30.58;50.51
75936;BME280;64614;32.062;34.834;2023-09-19T09:02:36;100514.56;;;30.67;50.74
75936;BME280;64614;32.062;34.834;2023-09-19T09:05:04;100509.75;;;30.64;50.47
75936;BME280;64614;32.062;34.834;2023-09-19T09:07:32;100512.59;;;30.68;50.85
75936;BME280;64614;32.062;34.834;2023-09-19T09:10:02;100507.03;;;30.68;50.79
75936;BME280;64614;32.062;34.834;2023-09-19T09:12:29;100510.69;;;30.72;51.27
75936;BME280;64614;32.062;34.834;2023-09-19T09:14:55;100511.09;;;30.74;51.26
75936;BME280;64614;32.062;34.834;2023-09-19T09:17:23;100505.94;;;30.72;51.28
75936;BME280;64614;32.062;34.834;2023-09-19T09:19:52;100506.34;;;30.74;51.06
75936;BME280;64614;32.062;34.834;2023-09-19T09:22:18;100514.84;;;30.85;51.39
75936;BME280;64614;32.062;34.834;2023-09-19T09:24:56;100504.47;;;30.82;51.21
75936;BME280;64614;32.062;34.834;2023-09-19T09:27:30;100496.97;;;30.83;51.44
75936;BME280;64614;32.062;34.834;2023-09-19T09:29:57;100509.66;;;30.84;51.18
75936;BME280;64614;32.062;34.834;2023-09-19T09:32:24;100496.59;;;30.84;51.41
75936;BME280;64614;32.062;34.834;2023-09-19T09:34:52;100502.19;;;30.88;51.66
75936;BME280;64614;32.062;34.834;2023-09-19T09:37:20;100506.13;;;30.87;51.69
75936;BME280;64614;32.062;34.834;2023-09-19T09:40:00;100497.50;;;30.92;51.38
75936;BME280;64614;32.062;34.834;2023-09-19T09:42:45;100488.81;;;30.93;51.49
75936;BME280;64614;32.062;34.834;2023-09-19T09:45:18;100500.34;;;30.95;51.55
75936;BME280;64614;32.062;34.834;2023-09-19T09:48:00;100501.13;;;30.96;51.85
75936;BME280;64614;32.062;34.834;2023-09-19T09:50:34;100494.41;;;30.97;51.79
75936;BME280;64614;32.062;34.834;2023-09-19T09:53:26;100490.47;;;30.98;51.46
75936;BME280;64614;32.062;34.834;2023-09-19T09:56:03;100484.53;;;31.00;51.72
75936;BME280;64614;32.062;34.834;2023-09-19T10:00:59;100490.88;;;31.00;51.63
75936;BME280;64614;32.062;34.834;2023-09-19T10:03:39;100482.19;;;31.02;51.88
75936;BME280;64614;32.062;34.834;2023-09-19T10:06:11;100479.03;;;31.03;51.50
75936;BME280;64614;32.062;34.834;2023-09-19T10:09:07;100484.22;;;31.05;51.98
75936;BME280;64614;32.062;34.834;2023-09-19T10:11:47;100481.06;;;31.06;51.74
75936;BME280;64614;32.062;34.834;2023-09-19T10:14:25;100475.47;;;31.03;51.48
75936;BME280;64614;32.062;34.834;2023-09-19T10:16:56;100473.56;;;31.07;51.80
75936;BME280;64614;32.062;34.834;2023-09-19T10:19:33;100482.28;;;31.09;51.63
75936;BME280;64614;32.062;34.834;2023-09-19T10:22:02;100476.72;;;31.09;51.53
75936;BME280;64614;32.062;34.834;2023-09-19T10:24:30;100475.59;;;31.10;51.35
75936;BME280;64614;32.062;34.834;2023-09-19T10:26:59;100476.41;;;31.10;51.71
75936;BME280;64614;32.062;34.834;2023-09-19T10:29:27;100475.59;;;31.10;51.21
75936;BME280;64614;32.062;34.834;2023-09-19T10:31:58;100474.41;;;31.11;51.48
75936;BME280;64614;32.062;34.834;2023-09-19T10:34:25;100474.84;;;31.13;51.56
75936;BME280;64614;32.062;34.834;2023-09-19T10:36:52;100462.16;;;31.12;51.76
75936;BME280;64614;32.062;34.834;2023-09-19T10:39:18;100465.72;;;31.13;51.44
75936;BME280;64614;32.062;34.834;2023-09-19T10:41:51;100464.16;;;31.12;52.14
75936;BME280;64614;32.062;34.834;2023-09-19T10:44:23;100470.09;;;31.14;51.93
75936;BME280;64614;32.062;34.834;2023-09-19T10:46:53;100465.34;;;31.14;51.95
75936;BME280;64614;32.062;34.834;2023-09-19T10:49:20;100454.25;;;31.14;51.92
75936;BME280;64614;32.062;34.834;2023-09-19T10:51:47;100456.59;;;31.12;52.02
75936;BME280;64614;32.062;34.834;2023-09-19T10:54:17;100459.69;;;31.07;51.02
75936;BME280;64614;32.062;34.834;2023-09-19T10:56:49;100450.81;;;30.94;49.36
75936;BME280;64614;32.062;34.834;2023-09-19T10:59:20;100462.78;;;30.75;48.53
75936;BME280;64614;32.062;34.834;2023-09-19T11:01:48;100457.81;;;30.61;50.14
75936;BME280;64614;32.062;34.834;2023-09-19T11:04:33;100453.25;;;30.49;49.69
75936;BME280;64614;32.062;34.834;2023-09-19T11:09:51;100446.63;;;30.30;49.97
75936;BME280;64614;32.062;34.834;2023-09-19T11:15:07;100453.84;;;30.12;50.38
75936;BME280;64614;32.062;34.834;2023-09-19T11:17:42;100444.97;;;30.02;49.36
75936;BME280;64614;32.062;34.834;2023-09-19T11:30:51;100443.28;;;29.75;49.99
75936;BME280;64614;32.062;34.834;2023-09-19T11:33:33;100434.53;;;29.73;51.09
75936;BME280;64614;32.062;34.834;2023-09-19T11:36:05;100435.25;;;29.69;50.12
75936;BME280;64614;32.062;34.834;2023-09-19T11:46:27;100431.88;;;29.57;50.77
75936;BME280;64614;32.062;34.834;2023-09-19T11:48:53;100435.72;;;29.52;50.29
75936;BME280;64614;32.062;34.834;2023-09-19T11:51:23;100441.97;;;29.49;50.77
75936;BME280;64614;32.062;34.834;2023-09-19T11:53:53;100435.22;;;29.46;50.71
75936;BME280;64614;32.062;34.834;2023-09-19T11:56:21;100440.22;;;29.41;51.47
75936;BME280;64614;32.062;34.834;2023-09-19T11:58:50;100440.34;;;29.44;50.71
75936;BME280;64614;32.062;34.834;2023-09-19T12:01:24;100447.31;;;29.38;50.77
75936;BME280;64614;32.062;34.834;2023-09-19T12:03:55;100436.63;;;29.36;51.16
75936;BME280;64614;32.062;34.834;2023-09-19T12:06:24;100445.16;;;29.31;50.74
75936;BME280;64614;32.062;34.834;2023-09-19T12:08:50;100439.94;;;29.26;51.08
75936;BME280;64614;32.062;34.834;2023-09-19T12:11:19;100441.53;;;29.27;51.48
75936;BME280;64614;32.062;34.834;2023-09-19T12:13:47;100435.03;;;29.19;50.81
75936;BME280;64614;32.062;34.834;2023-09-19T12:16:20;100433.53;;;29.22;51.13
75936;BME280;64614;32.062;34.834;2023-09-19T12:18:51;100442.91;;;29.17;51.60
75936;BME280;64614;32.062;34.834;2023-09-19T12:21:26;100440.06;;;29.14;51.02
75936;BME280;64614;32.062;34.834;2023-09-19T12:26:27;100433.22;;;29.07;52.13
75936;BME280;64614;32.062;34.834;2023-09-19T12:28:55;100437.97;;;29.07;50.81
75936;BME280;64614;32.062;34.834;2023-09-19T12:31:21;100435.47;;;29.02;51.56
75936;BME280;64614;32.062;34.834;2023-09-19T12:33:53;100435.47;;;29.02;51.98
75936;BME280;64614;32.062;34.834;2023-09-19T12:36:21;100429.84;;;28.98;50.82
75936;BME280;64614;32.062;34.834;2023-09-19T12:38:58;100438.88;;;28.95;51.66
75936;BME280;64614;32.062;34.834;2023-09-19T12:41:27;100437.69;;;28.96;52.70
75936;BME280;64614;32.062;34.834;2023-09-19T12:43:53;100432.16;;;28.96;52.34
75936;BME280;64614;32.062;34.834;2023-09-19T12:46:21;100440.56;;;29.00;52.01
75936;BME280;64614;32.062;34.834;2023-09-19T12:49:16;100442.66;;;29.06;51.97
75936;BME280;64614;32.062;34.834;2023-09-19T12:51:42;100439.56;;;29.08;51.78
75936;BME280;64614;32.062;34.834;2023-09-19T12:54:09;100444.72;;;29.10;51.99
75936;BME280;64614;32.062;34.834;2023-09-19T12:56:43;100441.31;;;29.16;51.97
75936;BME280;64614;32.062;34.834;2023-09-19T12:59:12;100437.00;;;29.19;52.02
75936;BME280;64614;32.062;34.834;2023-09-19T13:01:42;100439.78;;;29.19;51.91
75936;BME280;64614;32.062;34.834;2023-09-19T13:04:28;100439.06;;;29.22;51.93
75936;BME280;64614;32.062;34.834;2023-09-19T13:06:55;100434.75;;;29.24;52.04
75936;BME280;64614;32.062;34.834;2023-09-19T13:09:27;100439.94;;;29.26;51.94
75936;BME280;64614;32.062;34.834;2023-09-19T13:12:04;100428.06;;;29.26;52.21
75936;BME280;64614;32.062;34.834;2023-09-19T13:14:32;100443.22;;;29.32;52.00
75936;BME280;64614;32.062;34.834;2023-09-19T13:17:08;100442.53;;;29.35;52.33
75936;BME280;64614;32.062;34.834;2023-09-19T13:22:44;100439.88;;;29.42;52.22
75936;BME280;64614;32.062;34.834;2023-09-19T13:25:16;100443.44;;;29.43;52.24
75936;BME280;64614;32.062;34.834;2023-09-19T13:27:53;100433.19;;;29.43;52.11
75936;BME280;64614;32.062;34.834;2023-09-19T13:30:19;100445.63;;;29.53;51.98
75936;BME280;64614;32.062;34.834;2023-09-19T13:32:45;100439.22;;;29.49;52.16
75936;BME280;64614;32.062;34.834;2023-09-19T13:35:15;100445.19;;;29.51;52.27
75936;BME280;64614;32.062;34.834;2023-09-19T13:37:42;100447.59;;;29.52;52.33
75936;BME280;64614;32.062;34.834;2023-09-19T13:40:10;100449.34;;;29.61;52.08
75936;BME280;64614;32.062;34.834;2023-09-19T13:42:37;100452.84;;;29.58;52.22
75936;BME280;64614;32.062;34.834;2023-09-19T13:45:03;100450.84;;;29.58;52.27